Time;durP1;ratioP1;P1;durP2;ratioP2;P2;SDS_P1;SDS_P2;PMS_P1;PMS_P2;Temp;Humidity;BMP_temperature;BMP_pressure;BME280_temperature;BME280_humidity;BME280_pressure;Samples;Min_cycle;Max_cycle;Signal;HPM_P1;HPM_P2
2022/10/17 00:06:55;;;;;;;0.20;0.00;;;20.10;99.90;;;;;;25642953;23;20374;-80
2022/10/17 00:16:59;;;;;;;0.20;0.00;;;20.10;99.90;;;;;;25588241;23;20391;-81
2022/10/17 00:27:04;;;;;;;0.20;0.00;;;20.00;99.90;;;;;;25642271;23;20443;-83
2022/10/17 00:37:08;;;;;;;0.20;0.00;;;20.00;99.90;;;;;;25617329;23;20364;-81
2022/10/17 00:47:19;;;;;;;0.20;0.00;;;19.80;99.90;;;;;;25615386;23;20518;-82
2022/10/17 00:57:23;;;;;;;0.20;0.00;;;19.90;99.90;;;;;;25642303;23;20418;-82
2022/10/17 01:07:30;;;;;;;0.20;0.00;;;20.00;99.90;;;;;;25615132;23;20437;-79
2022/10/17 01:17:53;;;;;;;0.20;0.00;;;20.20;99.90;;;;;;25640921;23;20368;-75
2022/10/17 01:28:12;;;;;;;0.20;0.00;;;20.10;99.90;;;;;;25639702;23;20393;-77
2022/10/17 01:38:23;;;;;;;0.20;0.00;;;20.10;99.90;;;;;;25640208;22;20356;-82
2022/10/17 01:48:33;;;;;;;0.20;0.00;;;20.10;99.90;;;;;;25644528;23;20457;-80
2022/10/17 01:58:41;;;;;;;0.20;0.00;;;20.10;99.90;;;;;;25644055;23;20479;-79
2022/10/17 02:08:46;;;;;;;0.20;0.00;;;20.00;99.90;;;;;;25644338;22;20439;-78
2022/10/17 02:19:12;;;;;;;0.20;0.00;;;20.20;99.90;;;;;;25646270;23;20399;-80
2022/10/17 02:29:19;;;;;;;0.20;0.00;;;20.20;99.90;;;;;;25400731;23;20386;-81
2022/10/17 02:39:27;;;;;;;0.20;0.00;;;20.30;99.90;;;;;;25399389;23;20382;-80
2022/10/17 02:49:36;;;;;;;0.20;0.00;;;20.20;99.90;;;;;;25399473;23;20386;-84
2022/10/17 02:59:44;;;;;;;0.20;0.00;;;20.30;99.90;;;;;;25398386;23;20364;-84
2022/10/17 03:09:48;;;;;;;0.20;0.00;;;20.20;99.90;;;;;;25402104;23;20390;-84
2022/10/17 03:19:53;;;;;;;0.20;0.00;;;20.30;99.90;;;;;;25417651;23;20371;-81
2022/10/17 03:29:57;;;;;;;0.20;0.00;;;20.80;99.90;;;;;;25645083;23;20376;-84
2022/10/17 03:40:02;;;;;;;0.20;0.10;;;21.10;99.90;;;;;;25620029;23;20374;-85
2022/10/17 03:50:07;;;;;;;0.20;0.00;;;21.10;99.90;;;;;;25647398;23;20367;-84
2022/10/17 04:00:13;;;;;;;0.20;0.00;;;21.20;99.90;;;;;;25644545;23;20435;-82
2022/10/17 04:10:17;;;;;;;0.20;0.00;;;21.20;99.90;;;;;;25644264;23;20405;-81
2022/10/17 04:20:22;;;;;;;0.20;0.00;;;21.10;99.90;;;;;;25642493;23;20374;-82
2022/10/17 04:30:26;;;;;;;0.20;0.00;;;21.10;99.90;;;;;;25643278;23;20829;-82
2022/10/17 04:40:31;;;;;;;0.20;0.00;;;21.20;99.90;;;;;;25616695;23;20427;-81
2022/10/17 04:50:35;;;;;;;0.20;0.00;;;21.10;99.90;;;;;;25614951;23;20379;-80
2022/10/17 05:00:40;;;;;;;0.20;0.00;;;20.90;99.90;;;;;;25641238;23;20375;-82
2022/10/17 05:10:46;;;;;;;0.20;0.10;;;20.70;99.90;;;;;;25642818;23;20360;-81
2022/10/17 05:20:51;;;;;;;0.20;0.00;;;20.60;99.90;;;;;;25613032;23;20383;-84
2022/10/17 05:30:55;;;;;;;0.20;0.00;;;20.40;99.90;;;;;;25641871;23;20382;-82
2022/10/17 05:41:02;;;;;;;0.20;0.00;;;20.40;99.90;;;;;;25639992;23;20400;-82
2022/10/17 05:51:08;;;;;;;0.20;0.00;;;20.30;99.90;;;;;;25638291;23;20386;-85
2022/10/17 06:01:14;;;;;;;0.20;0.00;;;20.20;99.90;;;;;;25633408;23;20399;-82
2022/10/17 06:11:18;;;;;;;0.20;0.00;;;20.30;99.90;;;;;;25633003;23;20438;-83
2022/10/17 06:21:26;;;;;;;0.20;0.00;;;20.50;99.90;;;;;;25611284;23;20360;-83
2022/10/17 06:31:30;;;;;;;0.20;0.00;;;20.60;99.90;;;;;;25611777;23;20387;-82
2022/10/17 06:41:35;;;;;;;0.20;0.00;;;20.60;99.90;;;;;;25615400;23;20390;-80
2022/10/17 06:51:39;;;;;;;0.20;0.00;;;21.00;99.90;;;;;;25641113;23;20375;-82
2022/10/17 07:01:44;;;;;;;0.20;0.00;;;21.30;99.90;;;;;;25644622;23;20478;-80
2022/10/17 07:11:49;;;;;;;0.20;0.00;;;21.80;99.90;;;;;;25619422;23;20375;-84
2022/10/17 07:21:55;;;;;;;0.20;0.00;;;22.10;99.90;;;;;;25642072;23;20383;-84
2022/10/17 07:31:59;;;;;;;0.20;0.00;;;22.40;99.90;;;;;;25617540;23;20394;-81
2022/10/17 07:42:06;;;;;;;0.20;0.00;;;22.90;99.90;;;;;;25640731;23;20371;-85
2022/10/17 07:52:10;;;;;;;0.20;0.00;;;23.20;99.90;;;;;;25593088;23;20553;-79
2022/10/17 08:02:21;;;;;;;0.20;0.00;;;23.00;99.90;;;;;;25628157;23;20371;-88
2022/10/17 08:12:25;;;;;;;0.20;0.00;;;23.40;99.90;;;;;;25662265;23;20363;-86
2022/10/17 08:22:32;;;;;;;0.20;0.00;;;23.70;99.90;;;;;;25624503;23;20427;-84
2022/10/17 08:32:36;;;;;;;0.20;0.00;;;24.10;99.90;;;;;;25615111;23;20454;-82
2022/10/17 08:43:08;;;;;;;0.20;0.00;;;24.40;99.90;;;;;;25617258;23;20360;-83
2022/10/17 08:53:19;;;;;;;0.20;0.00;;;24.70;99.90;;;;;;25611971;23;20396;-86
2022/10/17 09:03:39;;;;;;;0.20;0.00;;;24.70;99.90;;;;;;25644406;23;20362;-85
2022/10/17 09:13:56;;;;;;;0.20;0.00;;;24.30;99.90;;;;;;25641922;23;20374;-84
2022/10/17 09:24:04;;;;;;;0.20;0.00;;;24.40;99.90;;;;;;25611958;23;20913;-86
2022/10/17 09:34:17;;;;;;;0.20;0.07;;;24.60;99.90;;;;;;25640529;23;20402;-84
2022/10/17 09:44:30;;;;;;;0.20;0.00;;;25.40;99.90;;;;;;25639155;23;20383;-83
2022/10/17 09:54:42;;;;;;;0.20;0.00;;;25.30;99.90;;;;;;25590664;23;20473;-82
2022/10/17 10:04:58;;;;;;;0.20;0.00;;;25.20;99.90;;;;;;25617276;23;20426;-86
2022/10/17 10:15:36;;;;;;;0.20;0.00;;;25.50;99.90;;;;;;25645379;23;20383;-84
2022/10/17 10:25:51;;;;;;;0.20;0.00;;;25.50;99.90;;;;;;25614791;23;20385;-82
2022/10/17 10:36:00;;;;;;;0.20;0.00;;;25.80;99.90;;;;;;25642782;23;20374;-82
2022/10/17 10:46:18;;;;;;;0.20;0.00;;;26.10;99.90;;;;;;25616041;22;20399;-83
2022/10/17 10:56:26;;;;;;;0.20;0.00;;;25.90;99.90;;;;;;25620036;23;20360;-86
2022/10/17 11:06:35;;;;;;;0.20;0.00;;;26.80;99.90;;;;;;25646460;23;20370;-85
2022/10/17 11:16:46;;;;;;;0.20;0.00;;;26.90;99.90;;;;;;25641720;23;20360;-80
2022/10/17 11:26:56;;;;;;;0.20;0.00;;;27.40;99.90;;;;;;25643180;23;20376;-84
2022/10/17 11:37:04;;;;;;;0.20;0.00;;;27.50;99.90;;;;;;25619201;23;20362;-83
2022/10/17 11:47:17;;;;;;;0.20;0.00;;;27.80;99.90;;;;;;25639058;23;20375;-81
2022/10/17 11:57:38;;;;;;;0.20;0.00;;;27.50;99.90;;;;;;25640608;23;20384;-84
2022/10/17 12:07:49;;;;;;;0.20;0.00;;;27.80;99.90;;;;;;25617198;23;20382;-82
2022/10/17 12:17:57;;;;;;;0.20;0.00;;;27.70;99.90;;;;;;25612076;23;20360;-77
2022/10/17 12:28:15;;;;;;;0.20;0.00;;;26.90;99.90;;;;;;25638234;23;20387;-80
2022/10/17 12:38:22;;;;;;;0.20;0.00;;;27.10;99.90;;;;;;25630291;23;20360;-79
2022/10/17 12:49:02;;;;;;;0.20;0.00;;;26.90;99.90;;;;;;25637382;23;20376;-80
2022/10/17 12:59:09;;;;;;;0.20;0.00;;;27.40;99.90;;;;;;25638293;23;20449;-79
2022/10/17 13:09:25;;;;;;;0.20;0.00;;;26.90;99.90;;;;;;25612266;23;20375;-77
2022/10/17 13:19:32;;;;;;;0.20;0.00;;;26.60;99.90;;;;;;25610908;23;20506;-78
2022/10/17 13:29:44;;;;;;;0.20;0.00;;;26.80;99.90;;;;;;25639045;23;20394;-77
2022/10/17 13:39:48;;;;;;;0.20;0.00;;;25.60;99.90;;;;;;25639399;23;20435;-77
2022/10/17 13:50:01;;;;;;;0.20;0.00;;;25.20;99.90;;;;;;25617608;23;20407;-81
2022/10/17 14:00:11;;;;;;;0.20;0.00;;;25.40;99.90;;;;;;25644074;22;20426;-82
2022/10/17 14:10:22;;;;;;;0.20;0.00;;;26.30;99.90;;;;;;25591475;23;20745;-82
2022/10/17 14:20:27;;;;;;;0.20;0.00;;;25.90;99.90;;;;;;25640963;23;20375;-76
2022/10/17 14:30:54;;;;;;;0.20;0.00;;;27.50;99.90;;;;;;25614439;23;20380;-78
2022/10/17 14:41:02;;;;;;;0.20;0.00;;;29.30;99.90;;;;;;25641764;23;21013;-82
2022/10/17 14:51:28;;;;;;;0.20;0.00;;;29.10;99.90;;;;;;25614022;23;20383;-80
2022/10/17 15:01:47;;;;;;;0.20;0.00;;;28.20;99.90;;;;;;25614665;22;20444;-79
2022/10/17 15:11:52;;;;;;;0.20;0.00;;;27.60;99.90;;;;;;25642498;23;20387;-85
2022/10/17 15:21:56;;;;;;;0.20;0.10;;;25.70;99.90;;;;;;25613866;23;20364;-80
2022/10/17 15:32:01;;;;;;;0.20;0.00;;;25.90;99.90;;;;;;25613060;23;20383;-86
2022/10/17 15:42:08;;;;;;;0.20;0.00;;;26.10;99.90;;;;;;25641429;23;20364;-83
2022/10/17 15:52:13;;;;;;;0.20;0.00;;;25.30;99.90;;;;;;25611417;23;20372;-83
2022/10/17 16:02:19;;;;;;;0.20;0.00;;;25.20;99.90;;;;;;25639817;23;20372;-81
2022/10/17 16:12:29;;;;;;;0.20;0.00;;;24.80;99.90;;;;;;25611152;23;20376;-81
2022/10/17 16:22:35;;;;;;;0.20;0.00;;;24.80;99.90;;;;;;25634976;23;20368;-79
2022/10/17 16:32:41;;;;;;;0.20;0.00;;;24.80;99.90;;;;;;25609313;23;20368;-81
2022/10/17 16:42:45;;;;;;;0.20;0.00;;;24.50;99.90;;;;;;25611777;23;20372;-80
2022/10/17 16:52:50;;;;;;;0.20;0.00;;;24.30;99.90;;;;;;25610004;23;20420;-80
2022/10/17 17:02:54;;;;;;;0.20;0.00;;;23.90;99.90;;;;;;25609934;23;20371;-80
2022/10/17 17:13:00;;;;;;;0.20;0.00;;;23.90;99.90;;;;;;25583214;23;20395;-79
2022/10/17 17:23:04;;;;;;;0.20;0.00;;;23.80;99.90;;;;;;25633686;23;20405;-80
2022/10/17 17:33:10;;;;;;;0.20;0.00;;;23.70;99.90;;;;;;25609292;23;20897;-80
2022/10/17 17:43:14;;;;;;;0.20;0.00;;;23.50;99.90;;;;;;25584058;23;20368;-83
2022/10/17 17:53:19;;;;;;;0.20;0.00;;;23.20;99.90;;;;;;25636054;23;20380;-75
2022/10/17 18:03:23;;;;;;;0.20;0.00;;;23.30;99.90;;;;;;25609797;23;20378;-85
2022/10/17 18:13:29;;;;;;;0.20;0.00;;;23.30;99.90;;;;;;25607072;23;20440;-85
2022/10/17 18:23:32;;;;;;;0.20;0.00;;;23.40;99.90;;;;;;25585332;23;20376;-84
2022/10/17 18:33:38;;;;;;;0.20;0.03;;;23.50;99.90;;;;;;25641852;23;20367;-83
2022/10/17 18:43:43;;;;;;;0.20;0.00;;;23.50;99.90;;;;;;25641666;23;20379;-83
2022/10/17 18:53:50;;;;;;;0.20;0.00;;;23.10;99.90;;;;;;25614583;23;20371;-84
2022/10/17 19:03:57;;;;;;;0.20;0.00;;;23.10;99.90;;;;;;25615656;23;20375;-84
2022/10/17 19:14:04;;;;;;;0.20;0.00;;;22.90;99.90;;;;;;25589191;23;20387;-83
2022/10/17 19:24:12;;;;;;;0.20;0.00;;;23.00;99.90;;;;;;25612626;23;20364;-81
2022/10/17 19:34:18;;;;;;;0.20;0.00;;;22.90;99.90;;;;;;25631008;23;20856;-81
2022/10/17 19:44:22;;;;;;;0.20;0.00;;;22.80;99.90;;;;;;25584673;23;20364;-83
2022/10/17 19:54:27;;;;;;;0.20;0.00;;;23.00;99.90;;;;;;25640294;23;20380;-83
2022/10/17 20:04:31;;;;;;;0.20;0.00;;;22.90;99.90;;;;;;25610865;23;20380;-84
2022/10/17 20:14:36;;;;;;;0.20;0.00;;;23.10;99.90;;;;;;25614661;23;20379;-83
2022/10/17 20:24:43;;;;;;;0.20;0.00;;;23.00;99.90;;;;;;25641342;23;20372;-83
2022/10/17 20:34:49;;;;;;;0.20;0.00;;;22.80;99.90;;;;;;25615635;23;20420;-84
2022/10/17 20:44:53;;;;;;;0.20;0.00;;;22.60;99.90;;;;;;25645039;23;20368;-86
2022/10/17 20:54:58;;;;;;;0.20;0.00;;;22.60;99.90;;;;;;25645717;23;20382;-81
2022/10/17 21:05:02;;;;;;;0.20;0.00;;;22.40;99.90;;;;;;25650138;23;20363;-86
2022/10/17 21:15:10;;;;;;;0.20;0.00;;;22.00;99.90;;;;;;25634743;23;20372;-86
2022/10/17 21:25:14;;;;;;;0.20;0.07;;;21.60;99.90;;;;;;25617449;23;20376;-83
2022/10/17 21:35:19;;;;;;;0.20;0.00;;;21.30;99.90;;;;;;25619566;23;20380;-85
2022/10/17 21:45:23;;;;;;;0.20;0.00;;;21.10;99.90;;;;;;25653012;23;20368;-80
2022/10/17 21:55:29;;;;;;;0.20;0.00;;;21.10;99.90;;;;;;25654858;23;20367;-87
2022/10/17 22:05:33;;;;;;;0.20;0.00;;;21.10;99.90;;;;;;25646394;23;20375;-84
2022/10/17 22:15:38;;;;;;;0.20;0.00;;;21.10;99.90;;;;;;25625293;23;20375;-81
2022/10/17 22:25:42;;;;;;;0.20;0.00;;;21.10;99.90;;;;;;25646487;23;20379;-84
2022/10/17 22:35:47;;;;;;;0.20;0.00;;;21.00;99.90;;;;;;25651564;23;20363;-82
2022/10/17 22:45:55;;;;;;;0.20;0.05;;;20.80;99.90;;;;;;25667690;23;20368;-85
2022/10/17 22:56:02;;;;;;;0.20;0.00;;;20.70;99.90;;;;;;25628571;23;20368;-85
2022/10/17 23:06:06;;;;;;;0.20;0.00;;;20.60;99.90;;;;;;25662924;23;20352;-87
2022/10/17 23:16:11;;;;;;;0.20;0.00;;;20.40;99.90;;;;;;25669120;23;20383;-87
2022/10/17 23:26:15;;;;;;;0.20;0.00;;;20.30;99.90;;;;;;25622076;23;20399;-84
2022/10/17 23:36:21;;;;;;;0.20;0.00;;;20.30;99.90;;;;;;25646474;23;20364;-81
2022/10/17 23:46:25;;;;;;;0.20;0.00;;;20.40;99.90;;;;;;25645282;23;20375;-80
2022/10/17 23:56:30;;;;;;;0.20;0.00;;;20.40;99.90;;;;;;25646399;23;20387;-83
